Terminal Aerodrome Forecast
Issued by NWS

Home | Current Version | Previous Version | Text Only | Print | Product List | Glossary On
Versions: 1 2 3 4 5 6 7 8 9 10 11 12
000
FTUS43 KOAX 211723
TAFCDR
TAF
KCDR 211723Z 2118/2218 23009KT P6SM BKN120
     FM212200 30014G22KT P6SM VCSH BKN050 OVC100
     FM220700 30020G30KT P6SM VCSH SCT020 BKN040=

USA.gov is the U.S. government's official web portal to all federal, state and local government web resources and services.